sensor_id;sensor_type;location;lat;lon;timestamp;P1;durP1;ratioP1;P2;durP2;ratioP2
52035;SDS011;38046;49.448;32.074;2023-01-15T00:02:06;15.07;;;10.60;;
52035;SDS011;38046;49.448;32.074;2023-01-15T00:04:32;16.95;;;11.80;;
52035;SDS011;38046;49.448;32.074;2023-01-15T00:06:59;14.13;;;10.65;;
52035;SDS011;38046;49.448;32.074;2023-01-15T00:09:25;14.23;;;10.82;;
52035;SDS011;38046;49.448;32.074;2023-01-15T00:11:50;15.38;;;11.30;;
52035;SDS011;38046;49.448;32.074;2023-01-15T00:14:16;18.63;;;12.27;;
52035;SDS011;38046;49.448;32.074;2023-01-15T00:16:41;13.73;;;10.38;;
52035;SDS011;38046;49.448;32.074;2023-01-15T00:19:09;16.40;;;11.50;;
52035;SDS011;38046;49.448;32.074;2023-01-15T00:21:36;13.50;;;9.85;;
52035;SDS011;38046;49.448;32.074;2023-01-15T00:24:02;15.45;;;10.55;;
52035;SDS011;38046;49.448;32.074;2023-01-15T00:26:46;13.00;;;9.98;;
52035;SDS011;38046;49.448;32.074;2023-01-15T00:29:31;14.18;;;10.38;;
52035;SDS011;38046;49.448;32.074;2023-01-15T00:31:59;15.65;;;10.35;;
52035;SDS011;38046;49.448;32.074;2023-01-15T00:34:29;14.80;;;10.32;;
52035;SDS011;38046;49.448;32.074;2023-01-15T00:36:56;15.15;;;10.82;;
52035;SDS011;38046;49.448;32.074;2023-01-15T00:39:22;16.67;;;10.65;;
52035;SDS011;38046;49.448;32.074;2023-01-15T00:41:51;17.25;;;10.82;;
52035;SDS011;38046;49.448;32.074;2023-01-15T00:44:16;15.10;;;11.07;;
52035;SDS011;38046;49.448;32.074;2023-01-15T00:46:43;16.05;;;11.30;;
52035;SDS011;38046;49.448;32.074;2023-01-15T00:49:08;14.18;;;10.18;;
52035;SDS011;38046;49.448;32.074;2023-01-15T00:51:34;14.90;;;9.90;;
52035;SDS011;38046;49.448;32.074;2023-01-15T00:54:00;15.43;;;10.60;;
52035;SDS011;38046;49.448;32.074;2023-01-15T00:56:26;13.52;;;9.90;;
52035;SDS011;38046;49.448;32.074;2023-01-15T00:58:52;15.15;;;11.40;;
52035;SDS011;38046;49.448;32.074;2023-01-15T01:01:18;16.83;;;11.05;;
52035;SDS011;38046;49.448;32.074;2023-01-15T01:03:44;15.27;;;11.20;;
52035;SDS011;38046;49.448;32.074;2023-01-15T01:06:16;17.60;;;11.20;;
52035;SDS011;38046;49.448;32.074;2023-01-15T01:08:42;15.02;;;10.57;;
52035;SDS011;38046;49.448;32.074;2023-01-15T01:11:10;13.57;;;10.55;;
52035;SDS011;38046;49.448;32.074;2023-01-15T01:13:38;16.38;;;10.68;;
52035;SDS011;38046;49.448;32.074;2023-01-15T01:16:17;18.75;;;11.65;;
52035;SDS011;38046;49.448;32.074;2023-01-15T01:18:49;15.73;;;11.07;;
52035;SDS011;38046;49.448;32.074;2023-01-15T01:21:16;14.45;;;10.57;;
52035;SDS011;38046;49.448;32.074;2023-01-15T01:23:41;14.32;;;9.75;;
52035;SDS011;38046;49.448;32.074;2023-01-15T01:26:07;16.98;;;10.85;;
52035;SDS011;38046;49.448;32.074;2023-01-15T01:28:34;12.88;;;8.90;;
52035;SDS011;38046;49.448;32.074;2023-01-15T01:31:02;12.77;;;8.57;;
52035;SDS011;38046;49.448;32.074;2023-01-15T01:33:29;11.60;;;8.30;;
52035;SDS011;38046;49.448;32.074;2023-01-15T01:35:54;13.38;;;8.95;;
52035;SDS011;38046;49.448;32.074;2023-01-15T01:38:20;12.32;;;8.65;;
52035;SDS011;38046;49.448;32.074;2023-01-15T01:40:46;11.50;;;8.30;;
52035;SDS011;38046;49.448;32.074;2023-01-15T01:43:19;14.93;;;8.75;;
52035;SDS011;38046;49.448;32.074;2023-01-15T01:45:46;13.68;;;8.80;;
52035;SDS011;38046;49.448;32.074;2023-01-15T01:48:12;11.85;;;8.00;;
52035;SDS011;38046;49.448;32.074;2023-01-15T01:50:39;10.90;;;8.93;;
52035;SDS011;38046;49.448;32.074;2023-01-15T01:53:07;14.00;;;8.02;;
52035;SDS011;38046;49.448;32.074;2023-01-15T01:55:38;9.63;;;8.07;;
52035;SDS011;38046;49.448;32.074;2023-01-15T01:58:05;11.57;;;8.32;;
52035;SDS011;38046;49.448;32.074;2023-01-15T02:00:34;10.65;;;8.13;;
52035;SDS011;38046;49.448;32.074;2023-01-15T02:03:03;11.10;;;7.68;;
52035;SDS011;38046;49.448;32.074;2023-01-15T02:05:32;12.60;;;8.20;;
52035;SDS011;38046;49.448;32.074;2023-01-15T02:08:02;13.02;;;8.75;;
52035;SDS011;38046;49.448;32.074;2023-01-15T02:10:28;11.25;;;8.18;;
52035;SDS011;38046;49.448;32.074;2023-01-15T02:12:57;13.48;;;8.48;;
52035;SDS011;38046;49.448;32.074;2023-01-15T02:15:44;14.32;;;8.80;;
52035;SDS011;38046;49.448;32.074;2023-01-15T02:18:23;14.20;;;8.60;;
52035;SDS011;38046;49.448;32.074;2023-01-15T02:26:06;16.20;;;10.48;;
52035;SDS011;38046;49.448;32.074;2023-01-15T02:28:42;14.30;;;9.98;;
52035;SDS011;38046;49.448;32.074;2023-01-15T02:31:15;12.75;;;9.00;;
52035;SDS011;38046;49.448;32.074;2023-01-15T02:33:50;14.43;;;8.65;;
52035;SDS011;38046;49.448;32.074;2023-01-15T02:36:26;14.38;;;9.45;;
52035;SDS011;38046;49.448;32.074;2023-01-15T02:38:54;12.52;;;9.10;;
52035;SDS011;38046;49.448;32.074;2023-01-15T02:41:24;16.30;;;9.77;;
52035;SDS011;38046;49.448;32.074;2023-01-15T02:43:53;11.65;;;8.98;;
52035;SDS011;38046;49.448;32.074;2023-01-15T02:46:21;13.75;;;9.52;;
52035;SDS011;38046;49.448;32.074;2023-01-15T02:48:52;12.80;;;8.35;;
52035;SDS011;38046;49.448;32.074;2023-01-15T02:51:21;11.63;;;8.20;;
52035;SDS011;38046;49.448;32.074;2023-01-15T02:53:50;11.48;;;7.63;;
52035;SDS011;38046;49.448;32.074;2023-01-15T02:56:21;12.32;;;8.20;;
52035;SDS011;38046;49.448;32.074;2023-01-15T02:58:50;10.63;;;7.47;;
52035;SDS011;38046;49.448;32.074;2023-01-15T03:01:19;10.48;;;7.63;;
52035;SDS011;38046;49.448;32.074;2023-01-15T03:09:18;12.10;;;8.27;;
52035;SDS011;38046;49.448;32.074;2023-01-15T03:11:46;11.57;;;7.93;;
52035;SDS011;38046;49.448;32.074;2023-01-15T03:14:19;10.80;;;7.82;;
52035;SDS011;38046;49.448;32.074;2023-01-15T03:16:55;12.63;;;8.30;;
52035;SDS011;38046;49.448;32.074;2023-01-15T03:19:30;10.60;;;7.43;;
52035;SDS011;38046;49.448;32.074;2023-01-15T03:27:16;13.25;;;8.10;;
52035;SDS011;38046;49.448;32.074;2023-01-15T03:29:42;9.95;;;7.70;;
52035;SDS011;38046;49.448;32.074;2023-01-15T03:32:11;9.55;;;7.30;;
52035;SDS011;38046;49.448;32.074;2023-01-15T03:34:39;10.38;;;7.90;;
52035;SDS011;38046;49.448;32.074;2023-01-15T03:37:08;10.93;;;7.57;;
52035;SDS011;38046;49.448;32.074;2023-01-15T03:39:33;10.45;;;8.07;;
52035;SDS011;38046;49.448;32.074;2023-01-15T03:42:17;11.43;;;7.38;;
52035;SDS011;38046;49.448;32.074;2023-01-15T03:45:14;9.85;;;7.40;;
52035;SDS011;38046;49.448;32.074;2023-01-15T03:53:20;12.05;;;7.40;;
52035;SDS011;38046;49.448;32.074;2023-01-15T03:56:30;12.45;;;7.18;;
52035;SDS011;38046;49.448;32.074;2023-01-15T04:01:37;12.23;;;7.40;;
52035;SDS011;38046;49.448;32.074;2023-01-15T04:04:05;11.52;;;7.57;;
52035;SDS011;38046;49.448;32.074;2023-01-15T04:06:32;17.00;;;8.30;;
52035;SDS011;38046;49.448;32.074;2023-01-15T04:09:02;10.88;;;7.90;;
52035;SDS011;38046;49.448;32.074;2023-01-15T04:11:30;9.02;;;7.07;;
52035;SDS011;38046;49.448;32.074;2023-01-15T04:13:56;10.30;;;7.22;;
52035;SDS011;38046;49.448;32.074;2023-01-15T04:16:26;15.20;;;7.15;;
52035;SDS011;38046;49.448;32.074;2023-01-15T04:18:53;9.93;;;6.93;;
52035;SDS011;38046;49.448;32.074;2023-01-15T04:21:19;9.57;;;6.63;;
52035;SDS011;38046;49.448;32.074;2023-01-15T04:23:45;8.18;;;6.43;;
52035;SDS011;38046;49.448;32.074;2023-01-15T04:26:10;8.57;;;6.65;;
52035;SDS011;38046;49.448;32.074;2023-01-15T04:28:37;10.40;;;6.80;;
52035;SDS011;38046;49.448;32.074;2023-01-15T04:31:03;11.10;;;7.45;;
52035;SDS011;38046;49.448;32.074;2023-01-15T04:33:28;13.85;;;7.38;;
52035;SDS011;38046;49.448;32.074;2023-01-15T04:35:57;12.23;;;7.80;;
52035;SDS011;38046;49.448;32.074;2023-01-15T04:38:24;10.80;;;8.13;;
52035;SDS011;38046;49.448;32.074;2023-01-15T04:40:50;9.60;;;7.18;;
52035;SDS011;38046;49.448;32.074;2023-01-15T04:43:34;10.75;;;6.72;;
52035;SDS011;38046;49.448;32.074;2023-01-15T04:46:24;9.40;;;6.57;;
52035;SDS011;38046;49.448;32.074;2023-01-15T04:48:50;9.23;;;6.85;;
52035;SDS011;38046;49.448;32.074;2023-01-15T04:51:16;13.95;;;7.63;;
52035;SDS011;38046;49.448;32.074;2023-01-15T04:53:42;10.82;;;8.35;;
52035;SDS011;38046;49.448;32.074;2023-01-15T04:56:08;13.18;;;8.70;;
52035;SDS011;38046;49.448;32.074;2023-01-15T04:58:35;10.30;;;8.18;;
52035;SDS011;38046;49.448;32.074;2023-01-15T05:01:01;11.60;;;8.40;;
52035;SDS011;38046;49.448;32.074;2023-01-15T05:03:27;11.55;;;8.90;;
52035;SDS011;38046;49.448;32.074;2023-01-15T05:05:53;18.77;;;10.00;;
52035;SDS011;38046;49.448;32.074;2023-01-15T05:08:19;14.18;;;9.57;;
52035;SDS011;38046;49.448;32.074;2023-01-15T05:10:45;20.60;;;11.10;;
52035;SDS011;38046;49.448;32.074;2023-01-15T05:13:10;19.52;;;10.30;;
52035;SDS011;38046;49.448;32.074;2023-01-15T05:15:36;17.27;;;11.02;;
52035;SDS011;38046;49.448;32.074;2023-01-15T05:18:04;14.80;;;8.85;;
52035;SDS011;38046;49.448;32.074;2023-01-15T05:20:30;16.92;;;10.10;;
52035;SDS011;38046;49.448;32.074;2023-01-15T05:22:56;16.80;;;10.93;;
52035;SDS011;38046;49.448;32.074;2023-01-15T05:25:21;15.68;;;11.00;;
52035;SDS011;38046;49.448;32.074;2023-01-15T05:27:47;18.52;;;10.73;;
52035;SDS011;38046;49.448;32.074;2023-01-15T05:30:13;17.48;;;11.20;;
52035;SDS011;38046;49.448;32.074;2023-01-15T05:32:39;19.00;;;11.88;;
52035;SDS011;38046;49.448;32.074;2023-01-15T05:35:04;20.55;;;11.95;;
52035;SDS011;38046;49.448;32.074;2023-01-15T05:37:30;15.88;;;11.48;;
52035;SDS011;38046;49.448;32.074;2023-01-15T05:39:56;17.33;;;10.95;;
52035;SDS011;38046;49.448;32.074;2023-01-15T05:42:22;17.80;;;11.25;;
52035;SDS011;38046;49.448;32.074;2023-01-15T05:44:47;18.85;;;11.80;;
52035;SDS011;38046;49.448;32.074;2023-01-15T05:47:13;18.90;;;12.30;;
52035;SDS011;38046;49.448;32.074;2023-01-15T05:49:39;20.50;;;12.90;;
52035;SDS011;38046;49.448;32.074;2023-01-15T05:52:04;18.27;;;12.05;;
52035;SDS011;38046;49.448;32.074;2023-01-15T05:54:34;19.17;;;13.68;;
52035;SDS011;38046;49.448;32.074;2023-01-15T05:57:00;19.52;;;13.57;;
52035;SDS011;38046;49.448;32.074;2023-01-15T05:59:27;20.15;;;13.82;;
52035;SDS011;38046;49.448;32.074;2023-01-15T06:01:53;20.92;;;13.68;;
52035;SDS011;38046;49.448;32.074;2023-01-15T06:04:20;20.13;;;13.13;;
52035;SDS011;38046;49.448;32.074;2023-01-15T06:06:46;20.80;;;13.23;;
52035;SDS011;38046;49.448;32.074;2023-01-15T06:09:13;22.25;;;14.45;;
52035;SDS011;38046;49.448;32.074;2023-01-15T06:11:39;21.13;;;14.18;;
52035;SDS011;38046;49.448;32.074;2023-01-15T06:14:05;21.65;;;14.48;;
52035;SDS011;38046;49.448;32.074;2023-01-15T06:16:31;19.88;;;13.70;;
52035;SDS011;38046;49.448;32.074;2023-01-15T06:19:01;21.25;;;13.32;;
52035;SDS011;38046;49.448;32.074;2023-01-15T06:21:28;19.00;;;12.65;;
52035;SDS011;38046;49.448;32.074;2023-01-15T06:23:54;19.55;;;13.45;;
52035;SDS011;38046;49.448;32.074;2023-01-15T06:26:20;20.45;;;13.68;;
52035;SDS011;38046;49.448;32.074;2023-01-15T06:28:47;20.60;;;13.00;;
52035;SDS011;38046;49.448;32.074;2023-01-15T06:31:13;20.27;;;14.13;;
52035;SDS011;38046;49.448;32.074;2023-01-15T06:33:41;25.48;;;15.52;;
52035;SDS011;38046;49.448;32.074;2023-01-15T06:36:07;19.27;;;13.35;;
52035;SDS011;38046;49.448;32.074;2023-01-15T06:38:41;19.95;;;13.10;;
52035;SDS011;38046;49.448;32.074;2023-01-15T06:41:11;20.05;;;13.20;;
52035;SDS011;38046;49.448;32.074;2023-01-15T06:43:57;19.00;;;13.18;;
52035;SDS011;38046;49.448;32.074;2023-01-15T06:46:45;18.23;;;12.77;;
52035;SDS011;38046;49.448;32.074;2023-01-15T06:49:31;16.98;;;12.13;;
52035;SDS011;38046;49.448;32.074;2023-01-15T06:51:57;18.52;;;12.07;;
52035;SDS011;38046;49.448;32.074;2023-01-15T06:54:23;19.58;;;11.85;;
52035;SDS011;38046;49.448;32.074;2023-01-15T06:56:49;19.25;;;12.40;;
52035;SDS011;38046;49.448;32.074;2023-01-15T06:59:15;17.52;;;11.63;;
52035;SDS011;38046;49.448;32.074;2023-01-15T07:25:16;15.13;;;10.05;;
52035;SDS011;38046;49.448;32.074;2023-01-15T07:27:42;18.17;;;11.15;;
52035;SDS011;38046;49.448;32.074;2023-01-15T07:30:10;17.02;;;12.15;;
52035;SDS011;38046;49.448;32.074;2023-01-15T07:32:36;13.77;;;10.85;;
52035;SDS011;38046;49.448;32.074;2023-01-15T07:35:01;17.80;;;12.30;;
52035;SDS011;38046;49.448;32.074;2023-01-15T07:37:27;17.48;;;11.77;;
52035;SDS011;38046;49.448;32.074;2023-01-15T07:39:53;18.40;;;12.52;;
52035;SDS011;38046;49.448;32.074;2023-01-15T07:42:19;13.15;;;10.57;;
52035;SDS011;38046;49.448;32.074;2023-01-15T07:45:03;17.75;;;12.43;;
52035;SDS011;38046;49.448;32.074;2023-01-15T07:47:47;16.70;;;11.30;;
52035;SDS011;38046;49.448;32.074;2023-01-15T07:50:31;15.48;;;10.73;;
52035;SDS011;38046;49.448;32.074;2023-01-15T07:52:57;13.50;;;10.57;;
52035;SDS011;38046;49.448;32.074;2023-01-15T07:55:23;16.17;;;11.73;;
52035;SDS011;38046;49.448;32.074;2023-01-15T07:57:48;15.82;;;11.30;;
52035;SDS011;38046;49.448;32.074;2023-01-15T08:00:18;16.25;;;11.55;;
52035;SDS011;38046;49.448;32.074;2023-01-15T08:02:45;16.93;;;11.77;;
52035;SDS011;38046;49.448;32.074;2023-01-15T08:05:13;14.88;;;11.38;;
52035;SDS011;38046;49.448;32.074;2023-01-15T08:07:40;13.38;;;10.52;;
52035;SDS011;38046;49.448;32.074;2023-01-15T08:10:11;15.52;;;11.23;;
52035;SDS011;38046;49.448;32.074;2023-01-15T08:12:37;16.48;;;11.85;;
52035;SDS011;38046;49.448;32.074;2023-01-15T08:15:22;14.95;;;10.80;;
52035;SDS011;38046;49.448;32.074;2023-01-15T08:17:48;18.25;;;10.57;;
52035;SDS011;38046;49.448;32.074;2023-01-15T08:20:16;13.82;;;10.63;;
52035;SDS011;38046;49.448;32.074;2023-01-15T08:22:43;14.85;;;10.90;;
52035;SDS011;38046;49.448;32.074;2023-01-15T08:25:10;15.93;;;11.40;;
52035;SDS011;38046;49.448;32.074;2023-01-15T08:27:38;17.30;;;11.48;;
52035;SDS011;38046;49.448;32.074;2023-01-15T08:30:05;19.67;;;12.07;;
52035;SDS011;38046;49.448;32.074;2023-01-15T08:32:32;14.63;;;11.43;;
52035;SDS011;38046;49.448;32.074;2023-01-15T08:34:58;18.52;;;13.30;;
52035;SDS011;38046;49.448;32.074;2023-01-15T08:37:23;15.75;;;10.38;;
52035;SDS011;38046;49.448;32.074;2023-01-15T08:39:49;17.92;;;11.77;;
52035;SDS011;38046;49.448;32.074;2023-01-15T08:42:17;13.40;;;10.98;;
52035;SDS011;38046;49.448;32.074;2023-01-15T08:44:44;16.02;;;10.23;;
52035;SDS011;38046;49.448;32.074;2023-01-15T08:47:10;19.48;;;11.82;;
52035;SDS011;38046;49.448;32.074;2023-01-15T08:49:35;18.98;;;12.85;;
52035;SDS011;38046;49.448;32.074;2023-01-15T08:52:02;17.92;;;12.32;;
52035;SDS011;38046;49.448;32.074;2023-01-15T08:54:28;18.30;;;11.15;;
52035;SDS011;38046;49.448;32.074;2023-01-15T08:56:54;14.93;;;10.57;;
52035;SDS011;38046;49.448;32.074;2023-01-15T08:59:19;14.32;;;10.65;;
52035;SDS011;38046;49.448;32.074;2023-01-15T09:01:45;16.65;;;11.95;;
52035;SDS011;38046;49.448;32.074;2023-01-15T09:04:14;18.33;;;12.23;;
52035;SDS011;38046;49.448;32.074;2023-01-15T09:06:41;15.23;;;11.43;;
52035;SDS011;38046;49.448;32.074;2023-01-15T09:09:07;14.02;;;10.63;;
52035;SDS011;38046;49.448;32.074;2023-01-15T09:11:33;14.57;;;10.35;;
52035;SDS011;38046;49.448;32.074;2023-01-15T09:13:59;18.10;;;11.98;;
52035;SDS011;38046;49.448;32.074;2023-01-15T09:16:24;17.35;;;11.15;;
52035;SDS011;38046;49.448;32.074;2023-01-15T09:18:52;13.88;;;10.15;;
52035;SDS011;38046;49.448;32.074;2023-01-15T09:21:18;19.80;;;11.60;;
52035;SDS011;38046;49.448;32.074;2023-01-15T09:23:44;14.00;;;10.38;;
52035;SDS011;38046;49.448;32.074;2023-01-15T09:28:56;15.80;;;11.27;;
52035;SDS011;38046;49.448;32.074;2023-01-15T09:31:23;13.80;;;10.73;;
52035;SDS011;38046;49.448;32.074;2023-01-15T09:33:49;18.20;;;12.55;;
52035;SDS011;38046;49.448;32.074;2023-01-15T09:36:19;17.38;;;12.63;;
52035;SDS011;38046;49.448;32.074;2023-01-15T09:38:48;18.35;;;11.82;;
52035;SDS011;38046;49.448;32.074;2023-01-15T09:41:15;16.67;;;12.23;;
52035;SDS011;38046;49.448;32.074;2023-01-15T09:44:20;15.77;;;10.55;;
52035;SDS011;38046;49.448;32.074;2023-01-15T09:55:26;12.00;;;9.45;;
52035;SDS011;38046;49.448;32.074;2023-01-15T09:57:55;16.20;;;10.02;;
52035;SDS011;38046;49.448;32.074;2023-01-15T10:00:24;13.75;;;9.10;;
52035;SDS011;38046;49.448;32.074;2023-01-15T10:05:43;12.82;;;9.65;;
52035;SDS011;38046;49.448;32.074;2023-01-15T10:08:31;16.75;;;11.32;;
52035;SDS011;38046;49.448;32.074;2023-01-15T10:16:22;14.25;;;10.80;;
52035;SDS011;38046;49.448;32.074;2023-01-15T10:18:50;13.63;;;8.32;;
52035;SDS011;38046;49.448;32.074;2023-01-15T10:24:05;12.80;;;9.25;;
52035;SDS011;38046;49.448;32.074;2023-01-15T10:26:38;19.02;;;9.88;;
52035;SDS011;38046;49.448;32.074;2023-01-15T10:31:54;19.70;;;10.48;;
52035;SDS011;38046;49.448;32.074;2023-01-15T10:45:46;16.95;;;11.18;;
52035;SDS011;38046;49.448;32.074;2023-01-15T10:50:52;13.57;;;9.35;;
52035;SDS011;38046;49.448;32.074;2023-01-15T11:01:32;12.27;;;8.68;;
52035;SDS011;38046;49.448;32.074;2023-01-15T11:03:58;13.05;;;9.75;;
52035;SDS011;38046;49.448;32.074;2023-01-15T11:06:24;12.13;;;8.88;;
52035;SDS011;38046;49.448;32.074;2023-01-15T11:08:54;14.40;;;9.05;;
52035;SDS011;38046;49.448;32.074;2023-01-15T11:14:18;15.73;;;9.38;;
52035;SDS011;38046;49.448;32.074;2023-01-15T11:17:02;13.75;;;8.15;;
52035;SDS011;38046;49.448;32.074;2023-01-15T11:22:19;13.18;;;8.15;;
52035;SDS011;38046;49.448;32.074;2023-01-15T11:24:49;14.70;;;8.77;;
52035;SDS011;38046;49.448;32.074;2023-01-15T11:27:28;12.77;;;8.75;;
52035;SDS011;38046;49.448;32.074;2023-01-15T11:29:57;13.52;;;8.45;;
52035;SDS011;38046;49.448;32.074;2023-01-15T11:34:59;14.43;;;9.48;;
52035;SDS011;38046;49.448;32.074;2023-01-15T11:37:38;14.10;;;8.27;;
52035;SDS011;38046;49.448;32.074;2023-01-15T11:40:04;11.75;;;8.95;;
52035;SDS011;38046;49.448;32.074;2023-01-15T11:42:32;13.20;;;8.15;;
52035;SDS011;38046;49.448;32.074;2023-01-15T11:45:21;15.55;;;8.35;;
52035;SDS011;38046;49.448;32.074;2023-01-15T11:48:17;10.82;;;7.88;;
52035;SDS011;38046;49.448;32.074;2023-01-15T11:51:06;14.88;;;8.02;;
52035;SDS011;38046;49.448;32.074;2023-01-15T11:53:38;11.85;;;8.23;;
52035;SDS011;38046;49.448;32.074;2023-01-15T11:56:18;12.57;;;7.78;;
52035;SDS011;38046;49.448;32.074;2023-01-15T11:58:49;17.83;;;9.02;;
52035;SDS011;38046;49.448;32.074;2023-01-15T12:01:24;15.95;;;9.63;;
52035;SDS011;38046;49.448;32.074;2023-01-15T12:04:01;12.90;;;8.70;;
52035;SDS011;38046;49.448;32.074;2023-01-15T12:06:30;16.13;;;8.35;;
52035;SDS011;38046;49.448;32.074;2023-01-15T12:14:27;17.00;;;9.85;;
52035;SDS011;38046;49.448;32.074;2023-01-15T12:17:12;20.30;;;10.32;;
52035;SDS011;38046;49.448;32.074;2023-01-15T12:22:44;16.05;;;9.43;;
52035;SDS011;38046;49.448;32.074;2023-01-15T12:28:05;18.92;;;9.93;;
52035;SDS011;38046;49.448;32.074;2023-01-15T12:30:41;16.88;;;9.82;;
52035;SDS011;38046;49.448;32.074;2023-01-15T12:35:57;21.80;;;9.90;;
52035;SDS011;38046;49.448;32.074;2023-01-15T12:41:32;17.58;;;9.40;;
52035;SDS011;38046;49.448;32.074;2023-01-15T12:44:21;18.63;;;9.15;;
52035;SDS011;38046;49.448;32.074;2023-01-15T12:47:17;16.55;;;8.05;;
52035;SDS011;38046;49.448;32.074;2023-01-15T13:04:21;13.55;;;8.00;;
52035;SDS011;38046;49.448;32.074;2023-01-15T13:06:52;12.95;;;7.90;;
52035;SDS011;38046;49.448;32.074;2023-01-15T13:09:33;19.65;;;9.07;;
52035;SDS011;38046;49.448;32.074;2023-01-15T13:12:16;17.48;;;9.95;;
52035;SDS011;38046;49.448;32.074;2023-01-15T13:14:42;18.33;;;10.00;;
52035;SDS011;38046;49.448;32.074;2023-01-15T13:20:08;16.48;;;9.30;;
52035;SDS011;38046;49.448;32.074;2023-01-15T13:31:06;16.55;;;8.15;;
52035;SDS011;38046;49.448;32.074;2023-01-15T13:34:35;14.23;;;8.60;;
52035;SDS011;38046;49.448;32.074;2023-01-15T13:36:39;12.55;;;7.95;;
52035;SDS011;38046;49.448;32.074;2023-01-15T13:39:10;21.95;;;9.75;;
52035;SDS011;38046;49.448;32.074;2023-01-15T13:41:41;20.73;;;9.15;;
52035;SDS011;38046;49.448;32.074;2023-01-15T13:44:28;15.30;;;8.57;;
52035;SDS011;38046;49.448;32.074;2023-01-15T13:47:01;11.63;;;8.23;;
52035;SDS011;38046;49.448;32.074;2023-01-15T13:49:32;17.15;;;8.48;;
52035;SDS011;38046;49.448;32.074;2023-01-15T13:52:00;12.55;;;7.97;;
52035;SDS011;38046;49.448;32.074;2023-01-15T13:54:29;17.13;;;8.45;;
52035;SDS011;38046;49.448;32.074;2023-01-15T13:57:09;13.88;;;8.20;;
52035;SDS011;38046;49.448;32.074;2023-01-15T14:02:25;12.10;;;7.55;;
52035;SDS011;38046;49.448;32.074;2023-01-15T14:04:56;16.95;;;7.97;;
52035;SDS011;38046;49.448;32.074;2023-01-15T14:07:35;12.60;;;7.80;;
52035;SDS011;38046;49.448;32.074;2023-01-15T14:10:36;10.20;;;7.43;;
52035;SDS011;38046;49.448;32.074;2023-01-15T14:18:16;9.15;;;6.95;;
52035;SDS011;38046;49.448;32.074;2023-01-15T14:25:57;11.45;;;7.40;;
52035;SDS011;38046;49.448;32.074;2023-01-15T14:39:48;11.85;;;8.02;;
52035;SDS011;38046;49.448;32.074;2023-01-15T14:50:31;12.15;;;6.93;;
52035;SDS011;38046;49.448;32.074;2023-01-15T15:01:03;10.35;;;6.45;;
52035;SDS011;38046;49.448;32.074;2023-01-15T15:03:38;12.88;;;7.13;;
52035;SDS011;38046;49.448;32.074;2023-01-15T15:06:09;15.00;;;7.25;;
52035;SDS011;38046;49.448;32.074;2023-01-15T15:08:37;17.45;;;8.43;;
52035;SDS011;38046;49.448;32.074;2023-01-15T15:11:06;13.27;;;7.07;;
52035;SDS011;38046;49.448;32.074;2023-01-15T15:14:07;17.58;;;8.07;;
52035;SDS011;38046;49.448;32.074;2023-01-15T15:16:39;13.52;;;8.30;;
52035;SDS011;38046;49.448;32.074;2023-01-15T15:19:22;12.05;;;7.30;;
52035;SDS011;38046;49.448;32.074;2023-01-15T15:22:11;10.90;;;6.70;;
52035;SDS011;38046;49.448;32.074;2023-01-15T15:24:44;11.40;;;7.40;;
52035;SDS011;38046;49.448;32.074;2023-01-15T15:27:16;10.13;;;7.20;;
52035;SDS011;38046;49.448;32.074;2023-01-15T15:29:44;10.60;;;6.75;;
52035;SDS011;38046;49.448;32.074;2023-01-15T15:32:13;12.00;;;8.52;;
52035;SDS011;38046;49.448;32.074;2023-01-15T15:34:42;15.00;;;8.05;;
52035;SDS011;38046;49.448;32.074;2023-01-15T15:37:15;11.40;;;8.17;;
52035;SDS011;38046;49.448;32.074;2023-01-15T15:39:59;12.02;;;7.78;;
52035;SDS011;38046;49.448;32.074;2023-01-15T15:42:37;13.80;;;8.13;;
52035;SDS011;38046;49.448;32.074;2023-01-15T15:45:25;13.25;;;7.15;;
52035;SDS011;38046;49.448;32.074;2023-01-15T15:48:27;11.15;;;7.43;;
52035;SDS011;38046;49.448;32.074;2023-01-15T15:51:22;14.93;;;8.15;;
52035;SDS011;38046;49.448;32.074;2023-01-15T15:54:14;12.63;;;8.13;;
52035;SDS011;38046;49.448;32.074;2023-01-15T15:59:44;9.27;;;7.40;;
52035;SDS011;38046;49.448;32.074;2023-01-15T16:02:13;10.25;;;7.57;;
52035;SDS011;38046;49.448;32.074;2023-01-15T16:05:03;12.05;;;6.85;;
52035;SDS011;38046;49.448;32.074;2023-01-15T16:07:44;10.73;;;6.75;;
52035;SDS011;38046;49.448;32.074;2023-01-15T16:12:47;9.43;;;7.07;;
52035;SDS011;38046;49.448;32.074;2023-01-15T16:15:15;11.35;;;6.75;;
52035;SDS011;38046;49.448;32.074;2023-01-15T16:17:44;9.85;;;7.40;;
52035;SDS011;38046;49.448;32.074;2023-01-15T16:20:14;11.02;;;7.00;;
52035;SDS011;38046;49.448;32.074;2023-01-15T16:22:45;11.85;;;7.03;;
52035;SDS011;38046;49.448;32.074;2023-01-15T16:25:22;12.30;;;7.90;;
52035;SDS011;38046;49.448;32.074;2023-01-15T16:27:50;19.42;;;8.23;;
52035;SDS011;38046;49.448;32.074;2023-01-15T16:30:16;12.55;;;7.50;;
52035;SDS011;38046;49.448;32.074;2023-01-15T16:32:42;14.75;;;8.18;;
52035;SDS011;38046;49.448;32.074;2023-01-15T16:35:16;11.40;;;8.23;;
52035;SDS011;38046;49.448;32.074;2023-01-15T16:37:51;12.05;;;7.80;;
52035;SDS011;38046;49.448;32.074;2023-01-15T16:43:11;13.65;;;8.52;;
52035;SDS011;38046;49.448;32.074;2023-01-15T16:48:40;12.10;;;8.10;;
52035;SDS011;38046;49.448;32.074;2023-01-15T16:53:57;12.30;;;8.73;;
52035;SDS011;38046;49.448;32.074;2023-01-15T16:59:01;15.40;;;10.43;;
52035;SDS011;38046;49.448;32.074;2023-01-15T17:01:32;14.25;;;10.15;;
52035;SDS011;38046;49.448;32.074;2023-01-15T17:04:02;14.40;;;9.55;;
52035;SDS011;38046;49.448;32.074;2023-01-15T17:06:39;14.68;;;9.98;;
52035;SDS011;38046;49.448;32.074;2023-01-15T17:09:05;19.30;;;11.63;;
52035;SDS011;38046;49.448;32.074;2023-01-15T17:11:37;18.55;;;11.27;;
52035;SDS011;38046;49.448;32.074;2023-01-15T17:14:10;14.45;;;10.82;;
52035;SDS011;38046;49.448;32.074;2023-01-15T17:16:43;14.88;;;10.85;;
52035;SDS011;38046;49.448;32.074;2023-01-15T17:19:09;14.75;;;10.18;;
52035;SDS011;38046;49.448;32.074;2023-01-15T17:21:35;16.25;;;10.20;;
52035;SDS011;38046;49.448;32.074;2023-01-15T17:24:02;13.85;;;10.40;;
52035;SDS011;38046;49.448;32.074;2023-01-15T17:26:31;16.23;;;10.25;;
52035;SDS011;38046;49.448;32.074;2023-01-15T17:28:57;16.00;;;10.27;;
52035;SDS011;38046;49.448;32.074;2023-01-15T17:31:29;13.80;;;9.98;;
52035;SDS011;38046;49.448;32.074;2023-01-15T17:33:57;15.88;;;9.57;;
52035;SDS011;38046;49.448;32.074;2023-01-15T17:36:24;15.82;;;10.63;;
52035;SDS011;38046;49.448;32.074;2023-01-15T17:38:51;15.23;;;10.02;;
52035;SDS011;38046;49.448;32.074;2023-01-15T17:41:17;14.38;;;10.45;;
52035;SDS011;38046;49.448;32.074;2023-01-15T17:43:45;14.98;;;10.05;;
52035;SDS011;38046;49.448;32.074;2023-01-15T17:46:11;16.38;;;11.35;;
52035;SDS011;38046;49.448;32.074;2023-01-15T17:48:37;13.63;;;9.85;;
52035;SDS011;38046;49.448;32.074;2023-01-15T17:51:05;16.05;;;10.93;;
52035;SDS011;38046;49.448;32.074;2023-01-15T17:53:33;13.15;;;10.30;;
52035;SDS011;38046;49.448;32.074;2023-01-15T17:56:00;13.30;;;9.60;;
52035;SDS011;38046;49.448;32.074;2023-01-15T17:58:45;14.82;;;9.80;;
52035;SDS011;38046;49.448;32.074;2023-01-15T18:01:49;15.30;;;10.50;;